Latest Coastal Weather Observations for Dum In Mirrie

IDD60701

Issued at 12:05 pm CST Saturday 19 April 2014 (issued every 10 minutes, with the page automatically refreshed every 10 minutes)

About coastal observations | Map of coastal stations | Coastal observations for NT | Marine services | Other Formats
Station Details ID: 014277 Name: DUM IN MIRRIE AIRSTRIP Lat: -12.63 Lon: 130.37 Height: 3.5 m
Data from the previous 72 hours. | See also: Recent months at Dum In Mirrie
Date/Time
CST
Temp

°C
Wind Pressure Rain
since 9am
mm
Weather Cloud Vis
km
Sea
Height
m
Swell
Dir
 
Speed
knots
Gust
knots
hPa Trend Height
m
Period
s
Dir
19/12:00pm 31.6 E 6 10 1009.7 - 0.2 - - - - - - -
19/11:30am 30.9 E 8 12 1010.4 - 0.2 - - - - - - -
19/11:00am 29.9 E 7 11 1011.0 - 0.2 - - - - - - -
19/10:30am 29.8 E 8 11 1011.3 - 0.2 - - - - - - -
19/10:00am 29.1 E 7 11 1011.1 - 0.2 - - - - - - -
19/09:30am 28.5 E 5 8 1011.0 - 0.0 - - - - - - -
19/09:00am 27.2 E 6 10 1011.2 - 7.2 - - - - - - -
19/08:30am 26.3 ESE 5 8 1011.3 - 7.2 - - - - - - -
19/08:00am 25.7 SE 4 7 1011.2 - 7.2 - - - - - - -
19/07:30am 25.1 ESE 4 6 1010.9 - 7.2 - - - - - - -
19/07:00am 24.5 ESE 5 8 1010.6 - 7.2 - - - - - - -
19/06:30am 24.4 ESE 4 6 1010.4 - 7.2 - - - - - - -
19/06:00am 24.3 ESE 3 6 1010.3 - 7.2 - - - - - - -
19/05:30am 24.4 SE 3 5 1010.0 - 7.2 - - - - - - -
19/05:00am 24.5 ESE 2 3 1009.8 - 7.2 - - - - - - -
19/04:30am 24.6 ESE 3 5 1009.8 - 7.2 - - - - - - -
19/04:00am 25.0 ESE 3 6 1009.9 - 7.2 - - - - - - -
19/03:30am 25.1 E 4 8 1009.9 - 7.2 - - - - - - -
19/03:00am 25.2 E 4 7 1010.1 - 7.2 - - - - - - -
19/02:30am 24.8 E 4 6 1010.1 - 7.2 - - - - - - -
19/02:00am 24.9 ESE 3 5 1010.5 - 7.2 - - - - - - -
19/01:30am 24.9 SE 3 5 1010.7 - 7.2 - - - - - - -
19/01:00am 24.9 E 3 5 1010.9 - 7.2 - - - - - - -
19/12:30am 24.9 ESE 4 6 1011.3 - 7.2 - - - - - - -
19/12:00am 25.0 ESE 4 9 1011.5 - 7.2 - - - - - - -
 
Date/Time
CST
Temp

°C
Wind Pressure Rain
since 9am
mm
Weather Cloud Vis
km
Sea
Height
m
Swell
Dir
 
Speed
knots
Gust
knots
hPa Trend Height
m
Period
s
Dir
18/11:30pm 24.9 E 6 10 1011.3 - 7.2 - - - - - - -
18/11:00pm 25.0 ESE 5 9 1011.6 - 7.2 - - - - - - -
18/10:30pm 24.8 ESE 4 7 1011.6 - 7.2 - - - - - - -
18/10:00pm 24.6 E 5 9 1011.5 - 7.2 - - - - - - -
18/09:30pm 25.0 E 10 20 1012.2 - 2.8 - - - - - - -
18/09:00pm 27.6 ESE 5 8 1011.7 - 0.0 - - - - - - -
18/08:30pm 27.6 E 4 6 1011.2 - 0.0 - - - - - - -
18/08:00pm 27.6 S 3 5 1011.2 - 0.0 - - - - - - -
18/07:30pm 27.8 ESE 2 4 1010.5 - 0.0 - - - - - - -
18/07:00pm 27.7 ENE 3 7 1009.9 - 0.0 - - - - - - -
18/06:30pm 27.7 NE 6 9 1009.8 - 0.0 - - - - - - -
18/06:00pm 27.9 NE 7 11 1009.5 - 0.0 - - - - - - -
18/05:30pm 27.9 NE 10 18 1008.8 - 0.0 - - - - - - -
18/05:00pm 29.2 NE 7 14 1008.9 - 0.0 - - - - - - -
18/04:30pm 31.4 ENE 7 10 1008.3 - 0.0 - - - - - - -
18/04:00pm 31.6 E 5 9 1008.0 - 0.0 - - - - - - -
18/03:30pm 33.0 E 4 6 1008.0 - 0.0 - - - - - - -
18/03:00pm 33.0 ENE 7 10 1008.1 - 0.0 - - - - - - -
18/02:30pm 33.7 E 6 11 1008.4 - 0.0 - - - - - - -
18/02:00pm 32.8 ENE 7 11 1008.7 - 0.0 - - - - - - -
18/01:30pm 32.5 ENE 4 8 1009.0 - 0.0 - - - - - - -
18/01:00pm 31.7 ENE 6 8 1009.4 - 0.0 - - - - - - -
18/12:30pm 31.6 E 7 11 1009.8 - 0.0 - - - - - - -
18/12:00pm 31.5 E 6 9 1010.3 - 0.0 - - - - - - -
18/11:30am 31.3 E 7 10 1010.6 - 0.0 - - - - - - -
18/11:00am 30.2 ENE 5 9 1011.0 - 0.0 - - - - - - -
18/10:30am 29.6 E 6 8 1011.4 - 0.0 - - - - - - -
18/10:00am 28.9 E 5 8 1011.5 - 0.0 - - - - - - -
18/09:30am 28.3 E 6 9 1011.3 - 0.0 - - - - - - -
18/09:00am 27.9 E 5 9 1011.1 - 0.0 - - - - - - -
18/08:30am 27.5 E 5 7 1011.0 - 0.0 - - - - - - -
18/08:00am 26.9 ENE 3 7 1010.9 - 0.0 - - - - - - -
18/07:30am 26.8 E 4 6 1010.7 - 0.0 - - - - - - -
18/07:00am 26.7 E 3 6 1010.6 - 0.0 - - - - - - -
18/06:30am 26.9 E 5 7 1010.3 - 0.0 - - - - - - -
18/06:00am 26.6 E 5 8 1009.8 - 0.0 - - - - - - -
18/05:30am 26.6 SE 4 8 1009.6 - 0.0 - - - - - - -
18/05:00am 26.6 SE 3 5 1009.3 - 0.0 - - - - - - -
18/04:30am 27.1 SE 4 6 1009.3 - 0.0 - - - - - - -
18/04:00am 27.1 SSE 4 6 1009.2 - 0.0 - - - - - - -
18/03:30am 28.0 SSE 2 4 1009.3 - 0.0 - - - - - - -
18/03:00am 28.3 CALM 0 2 1009.5 - 0.0 - - - - - - -
18/02:30am 27.7 CALM 0 2 1009.6 - 0.0 - - - - - - -
18/02:00am 27.6 W 1 3 1009.8 - 0.0 - - - - - - -
18/01:30am 27.8 W 2 3 1010.2 - 0.0 - - - - - - -
18/01:00am 28.1 W 2 3 1010.4 - 0.0 - - - - - - -
18/12:30am 28.4 W 2 4 1010.7 - 0.0 - - - - - - -
18/12:00am 28.2 WNW 3 5 1010.8 - 0.0 - - - - - - -
 
Date/Time
CST
Temp

°C
Wind Pressure Rain
since 9am
mm
Weather Cloud Vis
km
Sea
Height
m
Swell
Dir
 
Speed
knots
Gust
knots
hPa Trend Height
m
Period
s
Dir
17/11:30pm 27.2 NW 2 4 1011.1 - 0.0 - - - - - - -
17/11:00pm 27.2 NW 2 2 1011.2 - 0.0 - - - - - - -
17/10:30pm 28.3 NNW 2 5 1011.2 - 0.0 - - - - - - -
17/10:00pm 27.2 N 2 4 1011.3 - 0.0 - - - - - - -
17/09:30pm 27.1 CALM 0 0 1011.0 - 0.0 - - - - - - -
17/09:00pm 27.7 NNE 2 3 1010.8 - 0.0 - - - - - - -
17/08:30pm 28.0 N 1 1 1010.4 - 0.0 - - - - - - -
17/08:00pm 28.8 N 2 3 1010.2 - 0.0 - - - - - - -
17/07:30pm 28.8 N 2 2 1009.7 - 0.0 - - - - - - -
17/07:00pm 29.3 NNE 2 4 1009.3 - 0.0 - - - - - - -
17/06:30pm 29.8 N 3 5 1009.0 - 0.0 - - - - - - -
17/06:00pm 30.7 N 3 4 1008.5 - 0.0 - - - - - - -
17/05:30pm 31.1 NNW 2 4 1008.0 - 0.0 - - - - - - -
17/05:00pm 31.4 N 6 9 1007.7 - 0.0 - - - - - - -
17/04:30pm 31.6 N 6 9 1007.6 - 0.0 - - - - - - -
17/04:00pm 32.5 N 5 9 1007.6 - 0.0 - - - - - - -
17/03:30pm 32.0 N 6 10 1007.7 - 0.0 - - - - - - -
17/03:00pm 32.2 N 5 9 1007.8 - 0.0 - - - - - - -
17/02:30pm 32.4 NNE 4 10 1008.2 - 0.0 - - - - - - -
17/02:00pm 31.3 NE 5 7 1008.6 - 0.0 - - - - - - -
17/01:30pm 32.1 ENE 3 6 1008.9 - 0.0 - - - - - - -
17/01:00pm 31.0 ENE 4 6 1009.1 - 0.0 - - - - - - -
17/12:30pm 31.6 ENE 4 5 1009.5 - 0.0 - - - - - - -
17/12:00pm 32.3 E 3 5 1009.9 - 0.0 - - - - - - -
17/11:30am 32.1 E 3 5 1010.3 - 0.0 - - - - - - -
17/11:00am 31.6 E 4 6 1010.6 - 0.0 - - - - - - -
17/10:30am 30.5 ESE 4 7 1010.8 - 0.0 - - - - - - -
17/10:00am 29.5 ESE 5 8 1010.8 - 0.0 - - - - - - -
17/09:30am 28.6 SE 4 6 1010.8 - 0.0 - - - - - - -
17/09:00am 27.9 SE 4 6 1010.5 - 0.0 - - - - - - -
17/08:30am 27.4 SSE 4 6 1010.4 - 0.0 - - - - - - -
17/08:00am 26.4 SSE 3 5 1010.2 - 0.0 - - - - - - -
17/07:30am 25.8 SSE 3 5 1010.0 - 0.0 - - - - - - -
17/07:00am 25.5 S 3 5 1009.8 - 0.0 - - - - - - -
17/06:30am 24.6 S 2 3 1009.7 - 0.0 - - - - - - -
17/06:00am 24.8 S 2 3 1009.4 - 0.0 - - - - - - -
17/05:30am 25.6 SSW 2 5 1009.3 - 0.0 - - - - - - -
17/05:00am 24.9 S 2 4 1009.0 - 0.0 - - - - - - -
17/04:30am 24.1 CALM 0 1 1008.9 - 0.0 - - - - - - -
17/04:00am 23.8 WNW 1 2 1008.8 - 0.0 - - - - - - -
17/03:30am 23.9 CALM 0 1 1008.7 - 0.0 - - - - - - -
17/03:00am 23.9 NW 1 2 1008.6 - 0.0 - - - - - - -
17/02:30am 23.9 NNW 1 2 1008.8 - 0.0 - - - - - - -
17/02:00am 24.2 NNW 1 2 1009.1 - 0.0 - - - - - - -
17/01:30am 24.3 NW 1 2 1009.4 - 0.0 - - - - - - -
17/01:00am 24.1 NNW 1 2 1009.7 - 0.0 - - - - - - -
17/12:30am 24.4 NW 1 2 1009.9 - 0.0 - - - - - - -
17/12:00am 24.6 NW 1 2 1010.0 - 0.0 - - - - - - -
 
Date/Time
CST
Temp

°C
Wind Pressure Rain
since 9am
mm
Weather Cloud Vis
km
Sea
Height
m
Swell
Dir
 
Speed
knots
Gust
knots
hPa Trend Height
m
Period
s
Dir
16/11:30pm 24.6 NW 2 2 1010.2 - 0.0 - - - - - - -
16/11:00pm 25.0 NW 1 2 1010.3 - 0.0 - - - - - - -
16/10:30pm 24.9 WNW 2 2 1010.2 - 0.0 - - - - - - -
16/10:00pm 24.7 NNW 2 3 1010.1 - 0.0 - - - - - - -
16/09:30pm 24.9 NNW 2 3 1009.8 - 0.0 - - - - - - -
16/09:00pm 25.4 CALM 0 0 1009.6 - 0.0 - - - - - - -
16/08:30pm 26.0 CALM 0 0 1009.2 - 0.0 - - - - - - -
16/08:00pm 26.4 CALM 0 0 1008.9 - 0.0 - - - - - - -
16/07:30pm 27.7 N 1 2 1008.5 - 0.0 - - - - - - -
16/07:00pm 28.1 NNW 2 3 1008.3 - 0.0 - - - - - - -
16/06:30pm 29.7 N 2 4 1008.1 - 0.0 - - - - - - -
16/06:00pm 30.9 N 4 7 1007.9 - 0.0 - - - - - - -
16/05:30pm 31.7 N 4 7 1007.6 - 0.0 - - - - - - -
16/05:00pm 32.2 N 5 7 1007.2 - 0.0 - - - - - - -
16/04:30pm 33.9 ENE 6 10 1007.2 - 0.0 - - - - - - -
16/04:00pm 34.1 E 6 11 1007.0 - 0.0 - - - - - - -
16/03:30pm 34.3 E 6 9 1007.2 - 0.0 - - - - - - -
16/03:00pm 34.2 E 7 12 1007.3 - 0.0 - - - - - - -
16/02:30pm 34.3 E 7 10 1007.6 - 0.0 - - - - - - -
16/02:00pm 34.0 E 8 11 1008.0 - 0.0 - - - - - - -
16/01:30pm 33.9 E 7 12 1008.3 - 0.0 - - - - - - -
16/01:00pm 33.2 E 6 10 1008.8 - 0.0 - - - - - - -
16/12:30pm 33.1 E 7 11 1009.3 - 0.0 - - - - - - -

Other Formats:

Comma delimited format used in spreadsheet applications
http://www.bom.gov.au/fwo/IDD60701/IDD60701.94116.axf

JavaScript Object Notation format (JSON) in row-major order
http://www.bom.gov.au/fwo/IDD60701/IDD60701.94116.json